AR50 weather

Hess Strip
Wynne, Arkansas, United States

Public forecast

Using degrees Fahrenheit for public forecast. Weather courtesy of forecast.io.

Closest aviation weather report (METAR) to Hess Strip

Closest report is Newport Regional Airport, 24.2 nm (44.8 km) NNW. Retrieved UTC (0 seconds ago):

Closest aviation forecast (TAF) to Hess Strip

Closest forecast is Jonesboro Municipal Airport, 37.7 nm (69.8 km) NNE. Retrieved 2020/08/07 12:24 UTC (6 hours ago):

TAF KJBR 071120Z 0712/0812 04004KT P6SM BKN100 FM080100 10003KT P6SM SCT250